createdAt,value
2023-03-23T15:58:37.695Z,15.59
2023-03-23T16:01:07.823Z,15.66
2023-03-23T16:03:55.667Z,15.69
2023-03-23T16:06:25.671Z,15.73
2023-03-23T16:08:56.034Z,15.81
2023-03-23T16:11:24.188Z,15.84
2023-03-23T16:13:50.870Z,15.75
2023-03-23T16:16:23.717Z,15.71
2023-03-23T16:18:50.547Z,15.63
2023-03-23T16:21:16.988Z,15.56
2023-03-23T16:23:46.195Z,15.48
2023-03-23T16:26:14.502Z,15.45
2023-03-23T16:28:41.874Z,15.39
2023-03-23T16:31:08.532Z,15.34
2023-03-23T16:33:35.158Z,15.28
2023-03-23T16:36:01.893Z,15.24
2023-03-23T16:38:28.493Z,15.16
2023-03-23T16:40:55.013Z,15.20
2023-03-23T16:43:21.507Z,15.21
2023-03-23T16:45:48.354Z,15.15
2023-03-23T16:48:16.842Z,15.04
2023-03-23T16:50:44.234Z,15.07
2023-03-23T16:53:11.721Z,14.93
2023-03-23T16:55:39.071Z,14.53
2023-03-23T16:58:16.557Z,14.85
2023-03-23T17:00:46.993Z,14.78
2023-03-23T17:03:13.745Z,14.73
2023-03-23T17:05:40.881Z,14.57
2023-03-23T17:08:07.578Z,14.61
2023-03-23T17:10:34.140Z,14.55
2023-03-23T17:13:01.846Z,14.50
2023-03-23T17:15:28.589Z,14.48
2023-03-23T17:17:55.391Z,14.40
2023-03-23T17:20:23.043Z,14.37
2023-03-23T17:22:49.884Z,14.30
2023-03-23T17:25:16.415Z,14.23
2023-03-23T17:27:42.995Z,14.07
2023-03-23T17:30:10.871Z,14.11
2023-03-23T17:32:38.336Z,14.03
2023-03-23T17:35:05.705Z,14.06
2023-03-23T17:37:32.644Z,14.02
2023-03-23T17:39:59.135Z,13.97
2023-03-23T17:42:25.997Z,13.91
2023-03-23T17:44:52.555Z,13.89
2023-03-23T17:47:18.992Z,13.86
2023-03-23T17:49:45.493Z,13.81
2023-03-23T17:52:12.406Z,13.80
2023-03-23T17:54:38.785Z,13.78
2023-03-23T17:57:05.391Z,13.77
2023-03-23T17:59:32.137Z,13.75
2023-03-23T18:01:58.804Z,13.69
2023-03-23T18:04:26.968Z,13.70
2023-03-23T18:06:57.722Z,13.67
2023-03-23T18:09:25.161Z,13.67
2023-03-23T18:11:52.085Z,13.67
2023-03-23T18:14:19.592Z,13.66
2023-03-23T18:16:46.172Z,13.66
2023-03-23T18:19:12.763Z,13.63
2023-03-23T18:21:39.648Z,13.58
2023-03-23T18:24:06.634Z,13.51
2023-03-23T18:26:33.080Z,13.47
2023-03-23T18:28:59.635Z,13.46
2023-03-23T18:31:26.205Z,13.42
2023-03-23T18:33:54.833Z,13.37
2023-03-23T18:36:25.297Z,13.33
2023-03-23T18:38:55.358Z,13.31
2023-03-23T18:41:21.792Z,13.26
2023-03-23T18:43:48.248Z,13.20
2023-03-23T18:46:14.767Z,13.19
2023-03-23T18:48:41.383Z,13.18
2023-03-23T18:51:08.929Z,13.14
2023-03-23T18:53:35.506Z,13.06
2023-03-23T18:56:13.134Z,13.08
2023-03-23T18:58:39.748Z,13.11
2023-03-23T19:01:10.476Z,13.13
2023-03-23T19:03:38.496Z,13.12
2023-03-23T19:06:06.227Z,13.01
2023-03-23T19:08:33.132Z,13.02
2023-03-23T19:11:04.681Z,13.12
2023-03-23T19:13:34.059Z,13.10
2023-03-23T19:16:01.024Z,13.11
2023-03-23T19:18:27.782Z,13.11
2023-03-23T19:21:13.377Z,13.09
2023-03-23T19:23:41.427Z,13.09
2023-03-23T19:26:07.953Z,13.03
2023-03-23T19:29:11.644Z,13.02
2023-03-23T19:31:24.932Z,12.92
2023-03-23T19:33:53.033Z,13.01
2023-03-23T19:36:21.289Z,13.02
2023-03-23T19:38:47.832Z,13.01
2023-03-23T19:41:15.867Z,12.99
2023-03-23T19:43:43.441Z,12.98
2023-03-23T19:46:11.148Z,12.99
2023-03-23T19:48:39.702Z,12.88
2023-03-23T19:51:07.282Z,13.00
2023-03-23T19:53:34.321Z,12.99
2023-03-23T19:56:03.483Z,12.86
2023-03-23T19:58:30.796Z,12.97
2023-03-23T20:00:57.494Z,12.95
2023-03-23T20:03:24.103Z,12.90
2023-03-23T20:05:50.966Z,12.87
2023-03-23T20:08:17.950Z,12.75
2023-03-23T20:10:44.724Z,12.81
2023-03-23T20:13:11.648Z,12.79
2023-03-23T20:15:38.195Z,12.74
2023-03-23T20:18:05.021Z,12.73
2023-03-23T20:20:36.562Z,12.69
2023-03-23T20:23:04.422Z,12.68
2023-03-23T20:25:31.364Z,12.67
2023-03-23T20:27:57.961Z,12.65
2023-03-23T20:30:24.475Z,12.61
2023-03-23T20:32:52.228Z,12.59
2023-03-23T20:35:18.867Z,12.61
2023-03-23T20:37:45.307Z,12.57
2023-03-23T20:40:14.329Z,12.55
2023-03-23T20:42:43.668Z,12.50
2023-03-23T20:45:12.108Z,12.47
2023-03-23T20:47:39.017Z,12.46
2023-03-23T20:50:07.347Z,12.43
2023-03-23T20:52:34.283Z,12.39
2023-03-23T20:55:01.384Z,12.42
2023-03-23T20:57:28.753Z,12.39
2023-03-23T20:59:55.799Z,12.33
2023-03-23T21:02:22.557Z,12.34
2023-03-23T21:04:52.645Z,12.31
2023-03-23T21:07:22.959Z,12.28
2023-03-23T21:09:49.663Z,12.23
2023-03-23T21:12:16.195Z,12.28
2023-03-23T21:14:44.867Z,12.26
2023-03-23T21:17:11.920Z,12.15
2023-03-23T21:19:38.657Z,12.22
2023-03-23T21:22:05.214Z,12.12
2023-03-23T21:24:32.070Z,12.17
2023-03-23T21:27:00.502Z,12.19
2023-03-23T21:29:27.408Z,12.10
2023-03-23T21:32:05.283Z,12.15
2023-03-23T21:34:34.472Z,12.18
2023-03-23T21:37:01.108Z,12.11
2023-03-23T21:39:28.138Z,12.15
2023-03-23T21:41:54.846Z,12.13
2023-03-23T21:44:21.313Z,12.17
2023-03-23T21:46:47.804Z,12.20
2023-03-23T21:49:14.407Z,12.22
2023-03-23T21:51:41.751Z,12.12
2023-03-23T21:54:08.377Z,12.12
2023-03-23T21:56:34.857Z,12.20
2023-03-23T21:59:01.621Z,12.18
2023-03-23T22:01:30.090Z,12.17
2023-03-23T22:03:57.873Z,12.18
2023-03-23T22:06:26.776Z,12.13
2023-03-23T22:08:53.823Z,12.12
2023-03-23T22:11:23.460Z,12.15
2023-03-23T22:13:50.388Z,12.07
2023-03-23T22:16:18.139Z,12.11
2023-03-23T22:18:46.099Z,12.20
2023-03-23T22:21:13.215Z,12.24
2023-03-23T22:23:40.259Z,12.26
2023-03-23T22:26:06.987Z,12.28
2023-03-23T22:28:36.960Z,12.28
2023-03-23T22:31:18.521Z,12.29
2023-03-23T22:33:46.654Z,12.34
2023-03-23T22:36:13.969Z,12.35
2023-03-23T22:38:42.465Z,12.37
2023-03-23T22:41:12.861Z,12.37
2023-03-23T22:43:39.337Z,12.31
2023-03-23T22:46:06.463Z,12.42
2023-03-23T22:48:33.313Z,12.43
2023-03-23T22:51:00.352Z,12.40
2023-03-23T22:53:27.210Z,12.41
2023-03-23T22:55:55.487Z,12.44
2023-03-23T22:58:22.745Z,12.43
2023-03-23T23:00:52.062Z,12.32
2023-03-23T23:03:18.621Z,12.42
2023-03-23T23:05:49.294Z,12.43
2023-03-23T23:08:17.894Z,12.42
2023-03-23T23:10:46.291Z,12.41
2023-03-23T23:13:13.216Z,12.45
2023-03-23T23:15:45.196Z,12.47
2023-03-23T23:18:12.439Z,12.46
2023-03-23T23:20:39.252Z,12.49
2023-03-23T23:23:06.120Z,12.49
2023-03-23T23:25:33.773Z,12.50
2023-03-23T23:28:01.730Z,12.51
2023-03-23T23:30:28.699Z,12.55
2023-03-23T23:32:56.632Z,12.56
2023-03-23T23:35:23.574Z,12.59
2023-03-23T23:37:50.275Z,12.60
2023-03-23T23:40:17.623Z,12.60
2023-03-23T23:42:46.090Z,12.61
2023-03-23T23:45:14.032Z,12.60
2023-03-23T23:47:40.869Z,12.60
2023-03-23T23:50:08.674Z,12.62
2023-03-23T23:52:36.735Z,12.61
2023-03-23T23:55:04.954Z,12.31
2023-03-23T23:57:31.432Z,12.62
2023-03-23T23:59:58.073Z,12.61
